sensor_id;sensor_type;location;lat;lon;timestamp;pressure;altitude;pressure_sealevel;temperature;humidity
17260;BME280;8746;49.230;9.220;2023-02-03T00:02:19;101182.94;;;5.74;94.42
17260;BME280;8746;49.230;9.220;2023-02-03T00:04:44;101170.72;;;5.67;94.58
17260;BME280;8746;49.230;9.220;2023-02-03T00:07:11;101161.09;;;5.67;94.76
17260;BME280;8746;49.230;9.220;2023-02-03T00:09:38;101169.84;;;5.65;94.60
17260;BME280;8746;49.230;9.220;2023-02-03T00:12:04;101164.59;;;5.66;95.17
17260;BME280;8746;49.230;9.220;2023-02-03T00:14:30;101166.34;;;5.78;95.03
17260;BME280;8746;49.230;9.220;2023-02-03T00:16:55;101167.22;;;5.80;94.36
17260;BME280;8746;49.230;9.220;2023-02-03T00:19:21;101179.41;;;5.75;94.17
17260;BME280;8746;49.230;9.220;2023-02-03T00:21:46;101174.19;;;5.76;94.30
17260;BME280;8746;49.230;9.220;2023-02-03T00:24:11;101171.56;;;5.73;94.41
17260;BME280;8746;49.230;9.220;2023-02-03T00:26:41;101180.31;;;5.74;94.74
17260;BME280;8746;49.230;9.220;2023-02-03T00:29:06;101184.66;;;5.69;94.86
17260;BME280;8746;49.230;9.220;2023-02-03T00:31:33;101172.44;;;5.71;94.79
17260;BME280;8746;49.230;9.220;2023-02-03T00:33:59;101155.00;;;5.70;95.14
17260;BME280;8746;49.230;9.220;2023-02-03T00:36:25;101159.34;;;5.72;95.19
17260;BME280;8746;49.230;9.220;2023-02-03T00:38:51;101153.25;;;5.69;94.81
17260;BME280;8746;49.230;9.220;2023-02-03T00:41:18;101155.00;;;5.70;94.95
17260;BME280;8746;49.230;9.220;2023-02-03T00:43:44;101174.19;;;5.72;95.12
17260;BME280;8746;49.230;9.220;2023-02-03T00:46:10;101187.31;;;5.64;95.49
17260;BME280;8746;49.230;9.220;2023-02-03T00:48:35;101181.19;;;5.64;95.81
17260;BME280;8746;49.230;9.220;2023-02-03T00:51:01;101169.84;;;5.68;95.70
17260;BME280;8746;49.230;9.220;2023-02-03T00:53:26;101159.38;;;5.61;95.69
17260;BME280;8746;49.230;9.220;2023-02-03T00:55:51;101155.88;;;5.64;95.73
17260;BME280;8746;49.230;9.220;2023-02-03T00:58:17;101129.69;;;5.61;95.88
17260;BME280;8746;49.230;9.220;2023-02-03T01:00:42;101146.28;;;5.65;96.12
17260;BME280;8746;49.230;9.220;2023-02-03T01:03:08;101143.66;;;5.65;96.74
17260;BME280;8746;49.230;9.220;2023-02-03T01:05:34;101150.63;;;5.61;96.55
17260;BME280;8746;49.230;9.220;2023-02-03T01:08:00;101149.78;;;5.60;96.24
17260;BME280;8746;49.230;9.220;2023-02-03T01:10:26;101162.84;;;5.65;96.28
17260;BME280;8746;49.230;9.220;2023-02-03T01:12:51;101155.88;;;5.62;96.72
17260;BME280;8746;49.230;9.220;2023-02-03T01:15:16;101148.00;;;5.69;96.27
17260;BME280;8746;49.230;9.220;2023-02-03T01:17:42;101159.34;;;5.66;96.26
17260;BME280;8746;49.230;9.220;2023-02-03T01:20:08;101134.94;;;5.72;96.36
17260;BME280;8746;49.230;9.220;2023-02-03T01:22:36;101150.63;;;5.69;96.51
17260;BME280;8746;49.230;9.220;2023-02-03T01:25:02;101145.41;;;5.64;96.31
17260;BME280;8746;49.230;9.220;2023-02-03T01:27:27;101154.16;;;5.61;96.74
17260;BME280;8746;49.230;9.220;2023-02-03T01:29:53;101155.00;;;5.60;96.72
17260;BME280;8746;49.230;9.220;2023-02-03T01:32:18;101151.50;;;5.65;96.34
17260;BME280;8746;49.230;9.220;2023-02-03T01:34:44;101158.47;;;5.62;96.50
17260;BME280;8746;49.230;9.220;2023-02-03T01:37:09;101152.38;;;5.67;96.79
17260;BME280;8746;49.230;9.220;2023-02-03T01:39:34;101150.66;;;5.70;96.47
17260;BME280;8746;49.230;9.220;2023-02-03T01:42:00;101150.63;;;5.62;96.49
17260;BME280;8746;49.230;9.220;2023-02-03T01:44:39;101144.53;;;5.67;96.24
17260;BME280;8746;49.230;9.220;2023-02-03T01:49:37;101140.16;;;5.67;96.44
17260;BME280;8746;49.230;9.220;2023-02-03T01:52:03;101131.44;;;5.67;96.43
17260;BME280;8746;49.230;9.220;2023-02-03T01:54:32;101133.19;;;5.75;96.27
17260;BME280;8746;49.230;9.220;2023-02-03T01:57:06;101115.72;;;5.68;96.51
17260;BME280;8746;49.230;9.220;2023-02-03T01:59:35;101099.16;;;5.74;96.05
17260;BME280;8746;49.230;9.220;2023-02-03T02:02:03;101096.50;;;5.80;95.88
17260;BME280;8746;49.230;9.220;2023-02-03T02:04:35;101096.50;;;5.75;96.17
17260;BME280;8746;49.230;9.220;2023-02-03T02:07:02;101103.50;;;5.76;96.17
17260;BME280;8746;49.230;9.220;2023-02-03T02:09:28;101117.44;;;5.88;95.46
17260;BME280;8746;49.230;9.220;2023-02-03T02:11:53;101091.25;;;5.83;95.54
17260;BME280;8746;49.230;9.220;2023-02-03T02:14:19;101065.94;;;5.76;96.34
17260;BME280;8746;49.230;9.220;2023-02-03T02:16:46;101035.38;;;5.84;96.01
17260;BME280;8746;49.230;9.220;2023-02-03T02:25:49;101064.25;;;5.61;96.71
17260;BME280;8746;49.230;9.220;2023-02-03T02:28:57;101087.81;;;5.64;97.15
17260;BME280;8746;49.230;9.220;2023-02-03T02:39:23;101071.25;;;5.51;97.83
17260;BME280;8746;49.230;9.220;2023-02-03T02:42:13;101072.09;;;5.56;97.66
17260;BME280;8746;49.230;9.220;2023-02-03T02:44:43;101075.63;;;5.44;98.53
17260;BME280;8746;49.230;9.220;2023-02-03T02:47:21;101073.00;;;5.52;97.72
17260;BME280;8746;49.230;9.220;2023-02-03T02:50:00;101059.03;;;5.47;98.00
17260;BME280;8746;49.230;9.220;2023-02-03T02:52:29;101067.75;;;5.49;97.85
17260;BME280;8746;49.230;9.220;2023-02-03T02:54:59;101060.78;;;5.51;97.79
17260;BME280;8746;49.230;9.220;2023-02-03T02:57:27;101061.63;;;5.50;97.87
17260;BME280;8746;49.230;9.220;2023-02-03T02:59:54;101043.31;;;5.52;98.18
17260;BME280;8746;49.230;9.220;2023-02-03T03:02:19;101041.59;;;5.48;98.35
17260;BME280;8746;49.230;9.220;2023-02-03T03:04:47;101044.19;;;5.49;97.87
17260;BME280;8746;49.230;9.220;2023-02-03T03:07:19;101054.69;;;5.51;98.26
17260;BME280;8746;49.230;9.220;2023-02-03T03:09:55;101060.78;;;5.48;98.87
17260;BME280;8746;49.230;9.220;2023-02-03T03:12:24;101076.50;;;5.48;99.55
17260;BME280;8746;49.230;9.220;2023-02-03T03:14:55;101070.34;;;5.49;100.00
17260;BME280;8746;49.230;9.220;2023-02-03T03:17:27;101075.63;;;5.46;100.00
17260;BME280;8746;49.230;9.220;2023-02-03T03:19:55;101083.47;;;5.37;100.00
17260;BME280;8746;49.230;9.220;2023-02-03T03:22:29;101083.47;;;5.34;100.00
17260;BME280;8746;49.230;9.220;2023-02-03T03:25:07;101087.81;;;5.32;100.00
17260;BME280;8746;49.230;9.220;2023-02-03T03:27:38;101086.09;;;5.24;100.00
17260;BME280;8746;49.230;9.220;2023-02-03T03:30:33;101088.72;;;5.21;100.00
17260;BME280;8746;49.230;9.220;2023-02-03T03:33:00;101095.69;;;5.27;100.00
17260;BME280;8746;49.230;9.220;2023-02-03T03:35:31;101107.03;;;5.35;100.00
17260;BME280;8746;49.230;9.220;2023-02-03T03:38:11;101107.91;;;5.26;100.00
17260;BME280;8746;49.230;9.220;2023-02-03T03:40:48;101111.38;;;5.32;100.00
17260;BME280;8746;49.230;9.220;2023-02-03T03:43:21;101133.19;;;5.23;100.00
17260;BME280;8746;49.230;9.220;2023-02-03T03:45:54;101127.97;;;5.21;100.00
17260;BME280;8746;49.230;9.220;2023-02-03T03:48:31;101119.22;;;5.18;100.00
17260;BME280;8746;49.230;9.220;2023-02-03T03:51:03;101114.84;;;5.18;100.00
17260;BME280;8746;49.230;9.220;2023-02-03T03:53:31;101107.00;;;5.20;100.00
17260;BME280;8746;49.230;9.220;2023-02-03T03:56:00;101114.00;;;5.19;100.00
17260;BME280;8746;49.230;9.220;2023-02-03T03:58:31;101113.09;;;5.12;100.00
17260;BME280;8746;49.230;9.220;2023-02-03T04:01:00;101110.50;;;5.08;100.00
17260;BME280;8746;49.230;9.220;2023-02-03T04:03:31;101107.00;;;5.09;100.00
17260;BME280;8746;49.230;9.220;2023-02-03T04:05:57;101106.13;;;5.07;100.00
17260;BME280;8746;49.230;9.220;2023-02-03T04:08:22;101095.66;;;5.08;100.00
17260;BME280;8746;49.230;9.220;2023-02-03T04:10:47;101106.13;;;5.08;100.00
17260;BME280;8746;49.230;9.220;2023-02-03T04:13:13;101094.81;;;5.09;100.00
17260;BME280;8746;49.230;9.220;2023-02-03T04:15:40;101100.03;;;5.02;100.00
17260;BME280;8746;49.230;9.220;2023-02-03T04:18:05;101113.09;;;4.98;100.00
17260;BME280;8746;49.230;9.220;2023-02-03T04:20:31;101094.78;;;4.97;100.00
17260;BME280;8746;49.230;9.220;2023-02-03T04:22:57;101106.13;;;4.94;100.00
17260;BME280;8746;49.230;9.220;2023-02-03T04:25:23;101105.22;;;4.94;100.00
17260;BME280;8746;49.230;9.220;2023-02-03T04:27:49;101100.88;;;4.93;100.00
17260;BME280;8746;49.230;9.220;2023-02-03T04:30:14;101101.72;;;4.86;100.00
17260;BME280;8746;49.230;9.220;2023-02-03T04:32:42;101097.38;;;4.88;100.00
17260;BME280;8746;49.230;9.220;2023-02-03T04:35:08;101091.28;;;4.89;100.00
17260;BME280;8746;49.230;9.220;2023-02-03T04:37:33;101091.28;;;4.89;100.00
17260;BME280;8746;49.230;9.220;2023-02-03T04:39:59;101093.00;;;4.87;100.00
17260;BME280;8746;49.230;9.220;2023-02-03T04:42:24;101102.59;;;4.89;100.00
17260;BME280;8746;49.230;9.220;2023-02-03T04:44:50;101095.66;;;4.90;100.00
17260;BME280;8746;49.230;9.220;2023-02-03T04:47:17;101094.78;;;4.86;100.00
17260;BME280;8746;49.230;9.220;2023-02-03T04:49:42;101097.38;;;4.89;100.00
17260;BME280;8746;49.230;9.220;2023-02-03T04:52:08;101102.59;;;4.83;100.00
17260;BME280;8746;49.230;9.220;2023-02-03T04:54:34;101109.56;;;4.84;100.00
17260;BME280;8746;49.230;9.220;2023-02-03T04:57:00;101121.78;;;4.87;100.00
17260;BME280;8746;49.230;9.220;2023-02-03T04:59:25;101116.56;;;4.87;100.00
17260;BME280;8746;49.230;9.220;2023-02-03T05:01:50;101106.09;;;4.82;100.00
17260;BME280;8746;49.230;9.220;2023-02-03T05:04:16;101106.97;;;4.82;100.00
17260;BME280;8746;49.230;9.220;2023-02-03T05:06:41;101107.84;;;4.86;100.00
17260;BME280;8746;49.230;9.220;2023-02-03T05:09:07;101109.56;;;4.82;100.00
17260;BME280;8746;49.230;9.220;2023-02-03T05:11:32;101105.22;;;4.88;100.00
17260;BME280;8746;49.230;9.220;2023-02-03T05:13:58;101087.81;;;4.90;100.00
17260;BME280;8746;49.230;9.220;2023-02-03T05:16:23;101088.66;;;4.89;100.00
17260;BME280;8746;49.230;9.220;2023-02-03T05:18:49;101077.34;;;4.91;100.00
17260;BME280;8746;49.230;9.220;2023-02-03T05:21:15;101087.81;;;4.88;100.00
17260;BME280;8746;49.230;9.220;2023-02-03T05:23:40;101102.66;;;4.95;100.00
17260;BME280;8746;49.230;9.220;2023-02-03T05:26:05;101104.34;;;4.90;100.00
17260;BME280;8746;49.230;9.220;2023-02-03T05:28:31;101084.31;;;4.92;100.00
17260;BME280;8746;49.230;9.220;2023-02-03T05:30:57;101084.31;;;4.88;100.00
17260;BME280;8746;49.230;9.220;2023-02-03T05:33:23;101070.34;;;4.90;100.00
17260;BME280;8746;49.230;9.220;2023-02-03T05:35:48;101064.25;;;4.85;100.00
17260;BME280;8746;49.230;9.220;2023-02-03T05:38:14;101068.63;;;4.86;100.00
17260;BME280;8746;49.230;9.220;2023-02-03T05:40:39;101073.84;;;4.89;100.00
17260;BME280;8746;49.230;9.220;2023-02-03T05:43:23;101073.88;;;4.95;100.00
17260;BME280;8746;49.230;9.220;2023-02-03T05:45:48;101090.44;;;4.96;100.00
17260;BME280;8746;49.230;9.220;2023-02-03T05:48:13;101090.44;;;4.94;100.00
17260;BME280;8746;49.230;9.220;2023-02-03T05:50:39;101092.16;;;4.98;100.00
17260;BME280;8746;49.230;9.220;2023-02-03T05:53:05;101091.31;;;5.00;100.00
17260;BME280;8746;49.230;9.220;2023-02-03T05:55:31;101092.16;;;4.98;100.00
17260;BME280;8746;49.230;9.220;2023-02-03T05:57:57;101074.75;;;5.01;100.00
17260;BME280;8746;49.230;9.220;2023-02-03T06:00:24;101069.50;;;5.04;100.00
17260;BME280;8746;49.230;9.220;2023-02-03T06:02:53;101081.72;;;4.98;100.00
17260;BME280;8746;49.230;9.220;2023-02-03T06:05:20;101076.50;;;4.95;100.00
17260;BME280;8746;49.230;9.220;2023-02-03T06:07:46;101068.66;;;4.97;100.00
17260;BME280;8746;49.230;9.220;2023-02-03T06:10:11;101068.63;;;4.88;100.00
17260;BME280;8746;49.230;9.220;2023-02-03T06:12:37;101056.41;;;4.87;100.00
17260;BME280;8746;49.230;9.220;2023-02-03T06:15:03;101059.91;;;4.84;100.00
17260;BME280;8746;49.230;9.220;2023-02-03T06:17:28;101052.94;;;4.80;100.00
17260;BME280;8746;49.230;9.220;2023-02-03T06:19:53;101052.91;;;4.83;100.00
17260;BME280;8746;49.230;9.220;2023-02-03T06:22:19;101052.94;;;4.80;100.00
17260;BME280;8746;49.230;9.220;2023-02-03T06:24:44;101042.47;;;4.80;100.00
17260;BME280;8746;49.230;9.220;2023-02-03T06:27:12;101044.22;;;4.81;100.00
17260;BME280;8746;49.230;9.220;2023-02-03T06:29:38;101048.56;;;4.85;100.00
17260;BME280;8746;49.230;9.220;2023-02-03T06:32:03;101038.09;;;4.80;100.00
17260;BME280;8746;49.230;9.220;2023-02-03T06:34:29;101030.28;;;4.85;100.00
17260;BME280;8746;49.230;9.220;2023-02-03T06:36:54;101031.16;;;4.81;100.00
17260;BME280;8746;49.230;9.220;2023-02-03T06:39:19;101038.97;;;4.86;100.00
17260;BME280;8746;49.230;9.220;2023-02-03T06:41:45;101042.47;;;4.91;100.00
17260;BME280;8746;49.230;9.220;2023-02-03T06:44:10;101039.84;;;4.89;100.00
17260;BME280;8746;49.230;9.220;2023-02-03T06:46:36;101037.25;;;4.86;100.00
17260;BME280;8746;49.230;9.220;2023-02-03T06:49:01;101031.13;;;4.90;100.00
17260;BME280;8746;49.230;9.220;2023-02-03T06:51:27;101039.00;;;4.89;100.00
17260;BME280;8746;49.230;9.220;2023-02-03T06:53:52;101030.25;;;4.87;100.00
17260;BME280;8746;49.230;9.220;2023-02-03T06:56:17;101038.13;;;4.85;100.00
17260;BME280;8746;49.230;9.220;2023-02-03T06:58:43;101051.19;;;4.87;100.00
17260;BME280;8746;49.230;9.220;2023-02-03T07:01:08;101043.34;;;4.91;100.00
17260;BME280;8746;49.230;9.220;2023-02-03T07:03:34;101045.06;;;4.89;100.00
17260;BME280;8746;49.230;9.220;2023-02-03T07:05:59;101034.63;;;4.92;100.00
17260;BME280;8746;49.230;9.220;2023-02-03T07:08:25;101043.38;;;4.94;100.00
17260;BME280;8746;49.230;9.220;2023-02-03T07:10:54;101040.72;;;4.91;100.00
17260;BME280;8746;49.230;9.220;2023-02-03T07:13:19;101049.47;;;5.00;100.00
17260;BME280;8746;49.230;9.220;2023-02-03T07:15:45;101045.97;;;4.94;100.00
17260;BME280;8746;49.230;9.220;2023-02-03T07:18:10;101069.50;;;4.97;100.00
17260;BME280;8746;49.230;9.220;2023-02-03T07:20:35;101063.41;;;5.00;100.00
17260;BME280;8746;49.230;9.220;2023-02-03T07:23:01;101073.00;;;5.00;100.00
17260;BME280;8746;49.230;9.220;2023-02-03T07:25:26;101087.81;;;4.96;100.00
17260;BME280;8746;49.230;9.220;2023-02-03T07:27:52;101087.81;;;5.04;100.00
17260;BME280;8746;49.230;9.220;2023-02-03T07:30:18;101085.22;;;5.07;100.00
17260;BME280;8746;49.230;9.220;2023-02-03T07:32:47;101093.94;;;5.06;100.00
17260;BME280;8746;49.230;9.220;2023-02-03T07:35:13;101097.41;;;5.02;100.00
17260;BME280;8746;49.230;9.220;2023-02-03T07:37:39;101090.44;;;5.04;100.00
17260;BME280;8746;49.230;9.220;2023-02-03T07:40:06;101100.88;;;4.97;100.00
17260;BME280;8746;49.230;9.220;2023-02-03T07:42:31;101107.88;;;4.98;100.00
17260;BME280;8746;49.230;9.220;2023-02-03T07:44:56;101113.06;;;4.94;100.00
17260;BME280;8746;49.230;9.220;2023-02-03T07:47:22;101127.91;;;4.95;100.00
17260;BME280;8746;49.230;9.220;2023-02-03T07:49:47;101117.44;;;4.96;100.00
17260;BME280;8746;49.230;9.220;2023-02-03T07:52:12;101114.81;;;4.96;100.00
17260;BME280;8746;49.230;9.220;2023-02-03T07:54:38;101130.50;;;4.96;100.00
17260;BME280;8746;49.230;9.220;2023-02-03T07:57:03;101122.69;;;5.01;100.00
17260;BME280;8746;49.230;9.220;2023-02-03T07:59:28;101102.66;;;4.95;100.00
17260;BME280;8746;49.230;9.220;2023-02-03T08:01:54;101115.69;;;5.00;100.00
17260;BME280;8746;49.230;9.220;2023-02-03T08:04:21;101121.81;;;5.04;100.00
17260;BME280;8746;49.230;9.220;2023-02-03T08:06:46;101134.03;;;5.02;100.00
17260;BME280;8746;49.230;9.220;2023-02-03T08:09:11;101120.06;;;5.01;100.00
17260;BME280;8746;49.230;9.220;2023-02-03T08:11:38;101123.56;;;4.98;100.00
17260;BME280;8746;49.230;9.220;2023-02-03T08:14:04;101115.69;;;5.00;100.00
17260;BME280;8746;49.230;9.220;2023-02-03T08:16:29;101095.66;;;4.99;100.00
17260;BME280;8746;49.230;9.220;2023-02-03T08:18:54;101100.00;;;5.00;100.00
17260;BME280;8746;49.230;9.220;2023-02-03T08:21:20;101108.72;;;4.97;100.00
17260;BME280;8746;49.230;9.220;2023-02-03T08:23:45;101117.47;;;5.00;100.00
17260;BME280;8746;49.230;9.220;2023-02-03T08:26:11;101111.38;;;5.07;100.00
17260;BME280;8746;49.230;9.220;2023-02-03T08:28:36;101120.09;;;5.04;100.00
17260;BME280;8746;49.230;9.220;2023-02-03T08:31:08;101110.47;;;5.12;100.00
17260;BME280;8746;49.230;9.220;2023-02-03T08:33:34;101101.78;;;5.04;100.00
17260;BME280;8746;49.230;9.220;2023-02-03T08:35:59;101101.78;;;5.06;100.00
17260;BME280;8746;49.230;9.220;2023-02-03T08:38:25;101115.72;;;5.09;100.00
17260;BME280;8746;49.230;9.220;2023-02-03T08:40:50;101115.72;;;5.08;100.00
17260;BME280;8746;49.230;9.220;2023-02-03T08:43:15;101123.59;;;5.14;100.00
17260;BME280;8746;49.230;9.220;2023-02-03T08:45:41;101112.22;;;5.13;100.00
17260;BME280;8746;49.230;9.220;2023-02-03T08:48:07;101088.69;;;5.09;100.00
17260;BME280;8746;49.230;9.220;2023-02-03T08:50:32;101086.09;;;5.12;100.00
17260;BME280;8746;49.230;9.220;2023-02-03T08:52:57;101088.69;;;5.18;100.00
17260;BME280;8746;49.230;9.220;2023-02-03T08:55:23;101110.50;;;5.20;100.00
17260;BME280;8746;49.230;9.220;2023-02-03T08:57:49;101103.53;;;5.19;100.00
17260;BME280;8746;49.230;9.220;2023-02-03T09:00:14;101099.19;;;5.21;100.00
17260;BME280;8746;49.230;9.220;2023-02-03T09:02:40;101099.16;;;5.30;100.00
17260;BME280;8746;49.230;9.220;2023-02-03T09:05:05;101105.25;;;5.29;100.00
17260;BME280;8746;49.230;9.220;2023-02-03T09:07:31;101112.25;;;5.23;100.00
17260;BME280;8746;49.230;9.220;2023-02-03T09:09:56;101113.13;;;5.23;100.00
17260;BME280;8746;49.230;9.220;2023-02-03T09:12:22;101118.38;;;5.26;100.00
17260;BME280;8746;49.230;9.220;2023-02-03T09:14:48;101108.75;;;5.33;100.00
17260;BME280;8746;49.230;9.220;2023-02-03T09:17:13;101111.41;;;5.35;100.00
17260;BME280;8746;49.230;9.220;2023-02-03T09:19:38;101128.81;;;5.34;100.00
17260;BME280;8746;49.230;9.220;2023-02-03T09:22:04;101113.13;;;5.39;100.00
17260;BME280;8746;49.230;9.220;2023-02-03T09:24:29;101117.47;;;5.43;100.00
17260;BME280;8746;49.230;9.220;2023-02-03T09:26:55;101120.09;;;5.43;100.00
17260;BME280;8746;49.230;9.220;2023-02-03T09:29:21;101111.38;;;5.56;100.00
17260;BME280;8746;49.230;9.220;2023-02-03T09:31:48;101107.91;;;5.48;100.00
17260;BME280;8746;49.230;9.220;2023-02-03T09:34:17;101111.38;;;5.56;100.00
17260;BME280;8746;49.230;9.220;2023-02-03T09:36:42;101109.63;;;5.52;100.00
17260;BME280;8746;49.230;9.220;2023-02-03T09:39:07;101098.28;;;5.55;100.00
17260;BME280;8746;49.230;9.220;2023-02-03T09:47:03;101108.75;;;5.72;100.00
17260;BME280;8746;49.230;9.220;2023-02-03T09:49:44;101100.88;;;5.75;100.00
17260;BME280;8746;49.230;9.220;2023-02-03T09:52:29;101082.53;;;5.83;100.00
17260;BME280;8746;49.230;9.220;2023-02-03T09:55:29;101090.41;;;5.78;100.00
17260;BME280;8746;49.230;9.220;2023-02-03T09:58:07;101083.41;;;5.83;100.00
17260;BME280;8746;49.230;9.220;2023-02-03T10:00:41;101086.03;;;5.82;100.00
17260;BME280;8746;49.230;9.220;2023-02-03T10:03:16;101094.72;;;5.93;100.00
17260;BME280;8746;49.230;9.220;2023-02-03T10:06:09;101079.03;;;5.99;100.00
17260;BME280;8746;49.230;9.220;2023-02-03T10:17:31;101085.16;;;6.00;100.00
17260;BME280;8746;49.230;9.220;2023-02-03T10:20:00;101088.63;;;6.00;100.00
17260;BME280;8746;49.230;9.220;2023-02-03T10:22:29;101098.22;;;5.95;100.00
17260;BME280;8746;49.230;9.220;2023-02-03T10:24:59;101095.63;;;6.01;100.00
17260;BME280;8746;49.230;9.220;2023-02-03T10:27:27;101097.34;;;6.07;100.00
17260;BME280;8746;49.230;9.220;2023-02-03T10:29:58;101106.91;;;6.22;100.00
17260;BME280;8746;49.230;9.220;2023-02-03T10:32:26;101119.13;;;6.23;100.00
17260;BME280;8746;49.230;9.220;2023-02-03T10:34:52;101114.75;;;6.25;100.00
17260;BME280;8746;49.230;9.220;2023-02-03T10:37:33;101116.53;;;6.09;100.00
17260;BME280;8746;49.230;9.220;2023-02-03T10:40:02;101114.78;;;6.20;100.00
17260;BME280;8746;49.230;9.220;2023-02-03T10:42:30;101115.72;;;6.01;100.00
17260;BME280;8746;49.230;9.220;2023-02-03T10:45:17;101097.34;;;5.98;100.00
17260;BME280;8746;49.230;9.220;2023-02-03T10:47:46;101109.59;;;5.99;100.00
17260;BME280;8746;49.230;9.220;2023-02-03T10:50:16;101096.50;;;5.99;100.00
17260;BME280;8746;49.230;9.220;2023-02-03T10:52:41;101106.06;;;6.03;100.00
17260;BME280;8746;49.230;9.220;2023-02-03T10:55:28;101109.56;;;5.96;100.00
17260;BME280;8746;49.230;9.220;2023-02-03T10:57:56;101100.00;;;5.76;100.00
17260;BME280;8746;49.230;9.220;2023-02-03T11:00:27;101094.78;;;5.71;100.00
17260;BME280;8746;49.230;9.220;2023-02-03T11:05:22;101088.69;;;5.68;100.00
17260;BME280;8746;49.230;9.220;2023-02-03T11:07:50;101081.69;;;5.73;100.00
17260;BME280;8746;49.230;9.220;2023-02-03T11:10:36;101077.34;;;5.64;100.00
17260;BME280;8746;49.230;9.220;2023-02-03T11:13:19;101072.97;;;5.68;100.00
17260;BME280;8746;49.230;9.220;2023-02-03T11:16:04;101067.75;;;5.51;100.00
17260;BME280;8746;49.230;9.220;2023-02-03T11:21:42;101053.81;;;5.47;100.00
17260;BME280;8746;49.230;9.220;2023-02-03T11:24:14;101045.06;;;5.60;100.00
17260;BME280;8746;49.230;9.220;2023-02-03T11:26:44;101048.56;;;5.53;100.00
17260;BME280;8746;49.230;9.220;2023-02-03T11:29:32;101044.19;;;5.54;100.00
17260;BME280;8746;49.230;9.220;2023-02-03T11:32:17;101039.84;;;5.54;100.00
17260;BME280;8746;49.230;9.220;2023-02-03T11:34:59;101044.19;;;5.55;100.00
17260;BME280;8746;49.230;9.220;2023-02-03T11:37:41;101039.81;;;5.60;100.00
17260;BME280;8746;49.230;9.220;2023-02-03T11:42:37;101030.19;;;5.62;100.00
17260;BME280;8746;49.230;9.220;2023-02-03T11:45:16;101039.81;;;5.62;100.00
17260;BME280;8746;49.230;9.220;2023-02-03T11:47:51;101046.78;;;5.68;100.00
17260;BME280;8746;49.230;9.220;2023-02-03T11:56:10;101058.13;;;5.73;100.00
17260;BME280;8746;49.230;9.220;2023-02-03T12:02:07;101046.78;;;5.71;100.00
17260;BME280;8746;49.230;9.220;2023-02-03T12:09:56;101022.31;;;5.75;100.00
17260;BME280;8746;49.230;9.220;2023-02-03T12:15:26;101009.25;;;5.72;100.00
17260;BME280;8746;49.230;9.220;2023-02-03T12:18:40;100992.63;;;5.76;100.00
17260;BME280;8746;49.230;9.220;2023-02-03T12:21:29;100997.84;;;5.85;100.00
17260;BME280;8746;49.230;9.220;2023-02-03T12:26:38;100982.13;;;5.94;100.00
17260;BME280;8746;49.230;9.220;2023-02-03T12:29:13;100971.63;;;5.91;100.00
17260;BME280;8746;49.230;9.220;2023-02-03T12:32:04;100965.50;;;5.97;100.00
17260;BME280;8746;49.230;9.220;2023-02-03T12:34:41;100964.66;;;5.89;100.00
17260;BME280;8746;49.230;9.220;2023-02-03T12:37:11;100965.50;;;6.00;100.00
17260;BME280;8746;49.230;9.220;2023-02-03T12:39:47;100965.53;;;5.91;100.00
17260;BME280;8746;49.230;9.220;2023-02-03T12:42:35;100971.63;;;5.88;100.00
17260;BME280;8746;49.230;9.220;2023-02-03T12:45:12;100978.66;;;5.82;100.00
17260;BME280;8746;49.230;9.220;2023-02-03T12:50:31;100977.78;;;5.84;100.00
17260;BME280;8746;49.230;9.220;2023-02-03T12:53:03;100970.78;;;5.86;100.00
17260;BME280;8746;49.230;9.220;2023-02-03T12:55:39;100964.69;;;5.87;100.00
17260;BME280;8746;49.230;9.220;2023-02-03T13:03:40;100959.41;;;6.00;100.00
17260;BME280;8746;49.230;9.220;2023-02-03T13:09:04;100934.97;;;5.88;100.00
17260;BME280;8746;49.230;9.220;2023-02-03T13:11:51;100929.72;;;5.94;100.00
17260;BME280;8746;49.230;9.220;2023-02-03T13:14:47;100921.84;;;5.96;100.00
17260;BME280;8746;49.230;9.220;2023-02-03T13:17:21;100916.59;;;6.04;100.00
17260;BME280;8746;49.230;9.220;2023-02-03T13:19:54;100915.75;;;5.94;100.00
17260;BME280;8746;49.230;9.220;2023-02-03T13:22:22;100904.38;;;5.97;100.00
17260;BME280;8746;49.230;9.220;2023-02-03T13:28:01;100899.19;;;5.93;100.00
17260;BME280;8746;49.230;9.220;2023-02-03T13:39:14;100893.03;;;6.07;100.00
17260;BME280;8746;49.230;9.220;2023-02-03T13:41:50;100898.19;;;6.16;100.00
17260;BME280;8746;49.230;9.220;2023-02-03T13:44:19;100899.97;;;6.14;100.00
17260;BME280;8746;49.230;9.220;2023-02-03T13:46:49;100909.53;;;6.17;100.00
17260;BME280;8746;49.230;9.220;2023-02-03T13:49:24;100906.88;;;6.21;100.00
17260;BME280;8746;49.230;9.220;2023-02-03T13:51:52;100907.72;;;6.25;100.00
17260;BME280;8746;49.230;9.220;2023-02-03T13:54:36;100886.72;;;6.30;100.00
17260;BME280;8746;49.230;9.220;2023-02-03T13:57:05;100910.31;;;6.33;100.00
17260;BME280;8746;49.230;9.220;2023-02-03T13:59:43;100911.16;;;6.33;100.00
17260;BME280;8746;49.230;9.220;2023-02-03T14:20:37;100918.97;;;6.44;100.00
17260;BME280;8746;49.230;9.220;2023-02-03T14:25:33;100915.41;;;6.48;100.00
17260;BME280;8746;49.230;9.220;2023-02-03T14:28:05;100918.00;;;6.53;100.00
17260;BME280;8746;49.230;9.220;2023-02-03T14:30:31;100912.75;;;6.53;100.00
17260;BME280;8746;49.230;9.220;2023-02-03T14:32:58;100922.34;;;6.55;100.00
17260;BME280;8746;49.230;9.220;2023-02-03T14:35:31;100918.91;;;6.53;100.00
17260;BME280;8746;49.230;9.220;2023-02-03T14:37:59;100912.75;;;6.53;100.00
17260;BME280;8746;49.230;9.220;2023-02-03T14:59:47;100905.75;;;6.56;100.00
17260;BME280;8746;49.230;9.220;2023-02-03T15:04:41;100915.38;;;6.56;100.00
17260;BME280;8746;49.230;9.220;2023-02-03T15:07:32;100915.41;;;6.48;100.00
17260;BME280;8746;49.230;9.220;2023-02-03T15:09:58;100922.44;;;6.46;100.00
17260;BME280;8746;49.230;9.220;2023-02-03T15:12:25;100913.72;;;6.43;100.00
17260;BME280;8746;49.230;9.220;2023-02-03T15:14:52;100920.72;;;6.42;100.00
17260;BME280;8746;49.230;9.220;2023-02-03T15:19:48;100935.53;;;6.48;100.00
17260;BME280;8746;49.230;9.220;2023-02-03T15:24:43;100927.69;;;6.43;100.00